Time;durP1;ratioP1;P1;durP2;ratioP2;P2;SDS_P1;SDS_P2;PMS_P1;PMS_P2;Temp;Humidity;BMP_temperature;BMP_pressure;BME280_temperature;BME280_humidity;BME280_pressure;Samples;Min_cycle;Max_cycle;Signal;HPM_P1;HPM_P2
2022/03/06 00:01:20;;;;;;;23.70;10.65;;;2.80;99.90;;;;;;5034044;28;20018;-63
2022/03/06 00:03:47;;;;;;;29.58;12.82;;;2.80;99.90;;;;;;5047808;28;20076;-64
2022/03/06 00:06:13;;;;;;;30.42;13.10;;;2.80;99.90;;;;;;5046888;28;20364;-66
2022/03/06 00:08:40;;;;;;;29.10;14.13;;;2.90;99.90;;;;;;5037513;28;20025;-66
2022/03/06 00:11:06;;;;;;;29.83;12.93;;;2.90;99.90;;;;;;5054696;28;20408;-64
2022/03/06 00:13:33;;;;;;;24.65;11.32;;;2.90;99.90;;;;;;5028647;28;20033;-63
2022/03/06 00:15:59;;;;;;;26.60;12.10;;;3.00;99.90;;;;;;5030056;28;20389;-64
2022/03/06 00:18:25;;;;;;;23.88;9.90;;;3.00;99.90;;;;;;5028014;28;20053;-64
2022/03/06 00:20:50;;;;;;;29.60;13.27;;;3.10;99.90;;;;;;5024861;28;20529;-64
2022/03/06 00:23:17;;;;;;;22.88;10.80;;;3.10;99.90;;;;;;5024906;28;20490;-64
2022/03/06 00:25:42;;;;;;;24.17;11.25;;;3.10;99.90;;;;;;5026035;28;20037;-63
2022/03/06 00:28:08;;;;;;;24.17;10.20;;;3.20;99.90;;;;;;5033219;28;20460;-64
2022/03/06 00:30:34;;;;;;;29.20;12.50;;;3.30;99.90;;;;;;5046277;28;20458;-63
2022/03/06 00:33:00;;;;;;;27.42;11.63;;;3.30;99.90;;;;;;5022081;28;20029;-68
2022/03/06 00:35:28;;;;;;;30.88;13.63;;;3.40;99.90;;;;;;5034872;28;20560;-66
2022/03/06 00:37:55;;;;;;;29.58;14.20;;;3.40;99.90;;;;;;5039429;28;20021;-64
2022/03/06 00:40:21;;;;;;;30.55;15.02;;;3.50;99.90;;;;;;5037136;28;20021;-64
2022/03/06 00:42:46;;;;;;;29.55;13.50;;;3.50;99.90;;;;;;5032074;28;20040;-64
2022/03/06 00:45:14;;;;;;;26.60;13.05;;;3.60;99.90;;;;;;5029576;28;20030;-66
2022/03/06 00:47:41;;;;;;;24.90;12.88;;;3.60;99.90;;;;;;5036883;28;20479;-68
2022/03/06 00:50:07;;;;;;;26.90;12.00;;;3.70;99.90;;;;;;5035330;28;20041;-66
2022/03/06 00:52:33;;;;;;;23.73;10.35;;;3.70;99.90;;;;;;5033159;28;20485;-63
2022/03/06 00:54:59;;;;;;;25.45;11.35;;;3.70;99.90;;;;;;5030848;28;20030;-66
2022/03/06 00:57:24;;;;;;;24.55;10.63;;;3.80;99.90;;;;;;5043456;28;20034;-63
2022/03/06 00:59:50;;;;;;;28.15;11.98;;;3.80;99.90;;;;;;5029840;28;20025;-67
2022/03/06 01:02:16;;;;;;;24.92;11.82;;;3.80;99.90;;;;;;5027807;28;20029;-64
2022/03/06 01:04:41;;;;;;;21.27;11.18;;;3.80;99.90;;;;;;5035647;28;20508;-65
2022/03/06 01:07:07;;;;;;;28.65;12.10;;;3.90;99.90;;;;;;5035652;28;20029;-64
2022/03/06 01:09:33;;;;;;;24.83;11.32;;;3.90;99.90;;;;;;5035743;28;20436;-63
2022/03/06 01:11:59;;;;;;;25.27;11.55;;;3.90;99.90;;;;;;5030463;28;20084;-63
2022/03/06 01:14:24;;;;;;;28.88;12.65;;;4.00;99.90;;;;;;5027276;28;20033;-62
2022/03/06 01:16:50;;;;;;;22.90;11.52;;;4.00;99.90;;;;;;5033767;28;20030;-62
2022/03/06 01:19:16;;;;;;;23.40;10.75;;;4.00;99.90;;;;;;5029609;28;20117;-62
2022/03/06 01:21:41;;;;;;;26.33;12.73;;;4.00;99.90;;;;;;5035303;28;20390;-62
2022/03/06 01:24:07;;;;;;;20.15;9.65;;;4.00;99.90;;;;;;5025033;28;20147;-62
2022/03/06 01:26:33;;;;;;;24.48;11.88;;;4.00;99.90;;;;;;5031840;28;20025;-62
2022/03/06 01:28:58;;;;;;;26.08;12.32;;;4.00;99.90;;;;;;5047532;28;20033;-63
2022/03/06 01:31:24;;;;;;;26.75;13.13;;;4.10;99.90;;;;;;5028930;28;20045;-62
2022/03/06 01:33:49;;;;;;;26.10;12.65;;;4.10;99.90;;;;;;5029814;28;20488;-63
2022/03/06 01:36:15;;;;;;;28.00;12.50;;;4.10;99.90;;;;;;5029126;28;20468;-63
2022/03/06 01:38:41;;;;;;;25.52;11.75;;;4.10;99.90;;;;;;5028375;28;20041;-63
2022/03/06 01:41:06;;;;;;;25.92;13.15;;;4.10;99.90;;;;;;5030478;28;20032;-63
2022/03/06 01:43:32;;;;;;;22.52;10.88;;;4.10;99.90;;;;;;5021930;28;20034;-66
2022/03/06 01:45:57;;;;;;;26.85;13.50;;;4.00;99.90;;;;;;5035480;28;20400;-65
2022/03/06 01:48:23;;;;;;;25.92;12.45;;;4.00;99.90;;;;;;5035357;28;20130;-64
2022/03/06 01:50:49;;;;;;;23.98;10.93;;;4.00;99.90;;;;;;5031675;28;20082;-65
2022/03/06 01:53:14;;;;;;;21.70;11.48;;;4.00;99.90;;;;;;5019261;28;20041;-65
2022/03/06 01:55:42;;;;;;;23.65;12.40;;;3.90;99.90;;;;;;5035205;28;20025;-64
2022/03/06 01:58:10;;;;;;;25.20;11.40;;;3.90;99.90;;;;;;5045570;28;20021;-63
2022/03/06 02:00:39;;;;;;;22.35;10.80;;;3.90;99.90;;;;;;5036465;28;20040;-68
2022/03/06 02:03:05;;;;;;;24.35;11.63;;;3.90;99.90;;;;;;5034214;28;20040;-67
2022/03/06 02:05:30;;;;;;;26.77;12.68;;;3.90;99.90;;;;;;5023103;28;20030;-62
2022/03/06 02:07:56;;;;;;;24.35;11.93;;;3.90;99.90;;;;;;5026715;28;20088;-63
2022/03/06 02:10:22;;;;;;;25.73;12.32;;;3.90;99.90;;;;;;5032916;28;20041;-62
2022/03/06 02:12:48;;;;;;;22.75;12.00;;;3.90;99.90;;;;;;5032497;28;20021;-62
2022/03/06 02:15:16;;;;;;;19.67;9.50;;;3.90;99.90;;;;;;5027842;28;20054;-62
2022/03/06 02:17:41;;;;;;;23.27;10.68;;;4.00;99.90;;;;;;5013602;28;20030;-63
2022/03/06 02:20:14;;;;;;;22.55;11.35;;;4.00;99.90;;;;;;5027350;28;20033;-63
2022/03/06 02:22:42;;;;;;;22.52;10.73;;;4.00;99.90;;;;;;5032235;28;20171;-63
2022/03/06 02:25:16;;;;;;;24.85;12.25;;;4.00;99.90;;;;;;5031994;28;20418;-63
2022/03/06 02:27:42;;;;;;;24.55;13.00;;;3.90;99.90;;;;;;5033230;28;20083;-62
2022/03/06 02:30:12;;;;;;;25.92;12.27;;;3.90;99.90;;;;;;5032832;28;20466;-63
2022/03/06 02:32:38;;;;;;;26.98;12.93;;;3.90;99.90;;;;;;5015027;28;20026;-63
2022/03/06 02:35:05;;;;;;;25.92;12.48;;;3.90;99.90;;;;;;5031848;28;20022;-62
2022/03/06 02:37:30;;;;;;;23.05;10.80;;;3.90;99.90;;;;;;5032853;28;20057;-65
2022/03/06 02:40:00;;;;;;;23.98;11.75;;;3.80;99.90;;;;;;5032070;28;20119;-63
2022/03/06 02:42:32;;;;;;;22.38;10.10;;;3.80;99.90;;;;;;5032438;28;20041;-64
2022/03/06 02:44:58;;;;;;;;;;;3.80;99.90;;;;;;5032256;28;20068;-63
2022/03/06 02:47:25;;;;;;;23.45;10.90;;;3.70;99.90;;;;;;5030998;28;20269;-63
2022/03/06 02:49:51;;;;;;;22.60;10.95;;;3.70;99.90;;;;;;5032716;28;20026;-63
2022/03/06 02:52:17;;;;;;;19.42;10.38;;;3.60;99.90;;;;;;5034177;28;20078;-63
2022/03/06 02:54:43;;;;;;;20.05;9.52;;;3.60;99.90;;;;;;5030945;28;20097;-63
2022/03/06 02:57:09;;;;;;;21.95;11.02;;;3.60;99.90;;;;;;5032497;28;20103;-63
2022/03/06 02:59:35;;;;;;;19.92;10.32;;;3.50;99.90;;;;;;5032911;28;20026;-63
2022/03/06 03:02:01;;;;;;;23.98;11.82;;;3.50;99.90;;;;;;5032335;28;20026;-64
2022/03/06 03:04:26;;;;;;;24.25;10.60;;;3.40;99.90;;;;;;5031648;28;20034;-63
2022/03/06 03:06:52;;;;;;;20.08;9.60;;;3.40;99.90;;;;;;5032328;28;20114;-63
2022/03/06 03:09:21;;;;;;;20.42;9.40;;;3.40;99.90;;;;;;5032725;28;20026;-64
2022/03/06 03:11:48;;;;;;;22.35;10.73;;;3.40;99.90;;;;;;5031977;28;21350;-63
2022/03/06 03:14:15;;;;;;;19.25;10.60;;;3.40;99.90;;;;;;5044268;28;20029;-63
2022/03/06 03:16:41;;;;;;;20.65;9.95;;;3.40;99.90;;;;;;5032152;28;20112;-63
2022/03/06 03:19:07;;;;;;;16.30;8.75;;;3.40;99.90;;;;;;5031265;28;20104;-63
2022/03/06 03:21:32;;;;;;;20.63;9.00;;;3.30;99.90;;;;;;5032403;28;20460;-63
2022/03/06 03:23:58;;;;;;;21.42;10.65;;;3.30;99.90;;;;;;5031333;28;20107;-63
2022/03/06 03:26:24;;;;;;;23.58;10.38;;;3.30;99.90;;;;;;5031926;28;20036;-63
2022/03/06 03:28:50;;;;;;;23.92;10.73;;;3.30;99.90;;;;;;5031954;28;20100;-63
2022/03/06 03:31:16;;;;;;;22.02;10.30;;;3.20;99.90;;;;;;5032555;28;20461;-63
2022/03/06 03:33:42;;;;;;;20.73;9.77;;;3.20;99.90;;;;;;5032200;28;20086;-63
2022/03/06 03:36:07;;;;;;;22.80;10.02;;;3.20;99.90;;;;;;5035244;28;20029;-63
2022/03/06 03:38:33;;;;;;;22.85;10.80;;;3.20;99.90;;;;;;5035336;28;20033;-63
2022/03/06 03:41:01;;;;;;;19.23;9.77;;;3.20;99.90;;;;;;5034578;28;20031;-65
2022/03/06 03:43:26;;;;;;;21.27;9.95;;;3.20;99.90;;;;;;5035103;28;20045;-63
2022/03/06 03:45:52;;;;;;;19.63;9.20;;;3.10;99.90;;;;;;5035240;28;20053;-63
2022/03/06 03:48:18;;;;;;;21.30;9.77;;;3.10;99.90;;;;;;5035493;28;20025;-63
2022/03/06 03:50:44;;;;;;;20.17;10.18;;;3.10;99.90;;;;;;5035614;28;20083;-63
2022/03/06 03:53:09;;;;;;;19.00;8.98;;;3.00;99.90;;;;;;5034163;28;20037;-63
2022/03/06 03:55:36;;;;;;;21.95;7.97;;;3.00;99.90;;;;;;5034924;28;20025;-62
2022/03/06 03:58:02;;;;;;;20.70;9.15;;;3.00;99.90;;;;;;5033861;28;20084;-63
2022/03/06 04:00:28;;;;;;;18.40;9.50;;;2.90;99.90;;;;;;5035188;28;20056;-63
2022/03/06 04:02:53;;;;;;;19.50;9.63;;;2.90;99.90;;;;;;5034737;28;20390;-63
2022/03/06 04:05:19;;;;;;;21.10;9.93;;;2.90;99.90;;;;;;5031796;28;20034;-63
2022/03/06 04:07:44;;;;;;;18.52;8.50;;;2.90;99.90;;;;;;5027592;28;20413;-63
2022/03/06 04:10:11;;;;;;;20.73;8.85;;;2.80;99.90;;;;;;5034169;28;20025;-63
2022/03/06 04:12:36;;;;;;;17.50;8.90;;;2.80;99.90;;;;;;5035020;28;20030;-63
2022/03/06 04:15:02;;;;;;;21.10;8.45;;;2.80;99.90;;;;;;5035079;28;20022;-63
2022/03/06 04:17:28;;;;;;;19.42;9.70;;;2.80;99.90;;;;;;5034545;28;20034;-63
2022/03/06 04:19:53;;;;;;;20.63;10.20;;;2.70;99.90;;;;;;5033498;28;20493;-63
2022/03/06 04:22:19;;;;;;;18.50;8.48;;;2.70;99.90;;;;;;5029674;28;20034;-63
2022/03/06 04:24:44;;;;;;;18.55;8.77;;;2.70;99.90;;;;;;5022005;28;20049;-63
2022/03/06 04:27:10;;;;;;;21.13;9.20;;;2.70;99.90;;;;;;5034079;28;20056;-63
2022/03/06 04:29:35;;;;;;;19.15;9.05;;;2.60;99.90;;;;;;5034878;28;20026;-63
2022/03/06 04:32:01;;;;;;;18.77;9.57;;;2.60;99.90;;;;;;5025578;28;20032;-63
2022/03/06 04:34:26;;;;;;;20.25;9.32;;;2.60;99.90;;;;;;5025946;28;20103;-64
2022/03/06 04:36:52;;;;;;;21.08;10.90;;;2.60;99.90;;;;;;5034481;28;20048;-63
2022/03/06 04:39:18;;;;;;;21.23;9.57;;;2.50;99.90;;;;;;5034802;28;20437;-63
2022/03/06 04:41:43;;;;;;;25.85;12.02;;;2.50;99.90;;;;;;5034353;28;20546;-63
2022/03/06 04:44:09;;;;;;;23.67;9.95;;;2.40;99.90;;;;;;5034305;28;20045;-63
2022/03/06 04:46:35;;;;;;;23.83;11.43;;;2.40;99.90;;;;;;5034104;28;20054;-62
2022/03/06 04:49:00;;;;;;;23.52;10.23;;;2.40;99.90;;;;;;5029655;28;20021;-63
2022/03/06 04:51:26;;;;;;;22.90;10.95;;;2.40;99.90;;;;;;5028952;28;20112;-63
2022/03/06 04:53:51;;;;;;;24.35;10.95;;;2.40;99.90;;;;;;5034120;28;20122;-63
2022/03/06 04:56:17;;;;;;;23.50;12.27;;;2.40;99.90;;;;;;5034411;28;20030;-63
2022/03/06 04:58:42;;;;;;;20.60;10.40;;;2.30;99.90;;;;;;5033680;28;20033;-62
2022/03/06 05:01:08;;;;;;;21.63;9.65;;;2.30;99.90;;;;;;5033883;28;20043;-63
2022/03/06 05:03:34;;;;;;;22.05;10.57;;;2.30;99.90;;;;;;5033831;28;20049;-63
2022/03/06 05:05:59;;;;;;;18.25;8.90;;;2.30;99.90;;;;;;5034357;28;20030;-63
2022/03/06 05:08:27;;;;;;;22.15;10.85;;;2.30;99.90;;;;;;5033303;28;20063;-63
2022/03/06 05:10:54;;;;;;;24.60;9.80;;;2.30;99.90;;;;;;5034070;28;20078;-63
2022/03/06 05:13:20;;;;;;;22.58;10.80;;;2.30;99.90;;;;;;5033234;28;20083;-63
2022/03/06 05:15:46;;;;;;;26.55;11.68;;;2.30;99.90;;;;;;5034180;28;20022;-63
2022/03/06 05:18:11;;;;;;;24.67;11.27;;;2.30;99.90;;;;;;5033320;28;20035;-63
2022/03/06 05:20:37;;;;;;;21.20;9.23;;;2.20;99.90;;;;;;5033217;28;20144;-63
2022/03/06 05:23:03;;;;;;;21.23;9.60;;;2.30;99.90;;;;;;5033882;28;20041;-64
2022/03/06 05:25:28;;;;;;;21.17;8.95;;;2.20;99.90;;;;;;5033786;28;20053;-63
2022/03/06 05:27:54;;;;;;;21.55;9.52;;;2.20;99.90;;;;;;5033135;28;20033;-63
2022/03/06 05:30:20;;;;;;;25.80;10.80;;;2.20;99.90;;;;;;5033846;28;20031;-63
2022/03/06 05:32:45;;;;;;;23.85;10.02;;;2.20;99.90;;;;;;5033253;28;20351;-63
2022/03/06 05:35:12;;;;;;;23.30;9.48;;;2.20;99.90;;;;;;5032559;28;20053;-64
2022/03/06 05:37:38;;;;;;;18.92;8.02;;;2.20;99.90;;;;;;5033342;28;20086;-63
2022/03/06 05:40:04;;;;;;;19.02;8.95;;;2.20;99.90;;;;;;5031970;28;20442;-63
2022/03/06 05:42:30;;;;;;;20.08;8.95;;;2.20;99.90;;;;;;5032183;28;20095;-63
2022/03/06 05:44:56;;;;;;;17.20;8.25;;;2.20;99.90;;;;;;5033612;28;20033;-64
2022/03/06 05:47:21;;;;;;;21.92;9.23;;;2.20;99.90;;;;;;5033238;28;20034;-63
2022/03/06 05:49:47;;;;;;;20.70;7.82;;;2.20;99.90;;;;;;5033174;28;20519;-63
2022/03/06 05:52:12;;;;;;;16.17;7.00;;;2.20;99.90;;;;;;5032396;28;20502;-63
2022/03/06 05:54:38;;;;;;;18.60;8.10;;;2.20;99.90;;;;;;5032665;28;20029;-63
2022/03/06 05:57:04;;;;;;;16.98;7.95;;;2.30;99.90;;;;;;5044007;28;20040;-63
2022/03/06 05:59:30;;;;;;;15.90;7.57;;;2.30;99.90;;;;;;5053352;28;20029;-62
2022/03/06 06:01:55;;;;;;;21.83;7.97;;;2.30;99.90;;;;;;5041718;28;20111;-63
2022/03/06 06:04:21;;;;;;;18.17;6.60;;;2.40;99.90;;;;;;5032745;28;20037;-62
2022/03/06 06:06:46;;;;;;;15.65;6.40;;;2.40;99.90;;;;;;5033303;28;20041;-63
2022/03/06 06:09:12;;;;;;;14.18;6.25;;;2.50;99.90;;;;;;5040390;28;20098;-63
2022/03/06 06:11:38;;;;;;;12.43;6.10;;;2.50;99.90;;;;;;5013372;28;20033;-63
2022/03/06 06:14:04;;;;;;;12.38;5.88;;;2.60;99.90;;;;;;5028667;28;20026;-63
2022/03/06 06:16:30;;;;;;;12.00;5.53;;;2.60;99.90;;;;;;5032856;28;20108;-64
2022/03/06 06:18:56;;;;;;;13.35;6.43;;;2.70;99.90;;;;;;5032890;28;20036;-63
2022/03/06 06:21:22;;;;;;;10.52;5.10;;;2.80;99.90;;;;;;5042746;28;20036;-63
2022/03/06 06:23:48;;;;;;;12.30;5.68;;;2.80;99.90;;;;;;5022055;28;20382;-63
2022/03/06 06:26:14;;;;;;;12.75;5.22;;;2.80;99.90;;;;;;5032516;28;20026;-63
2022/03/06 06:28:39;;;;;;;9.05;4.38;;;2.90;99.90;;;;;;5031181;28;20034;-63
2022/03/06 06:31:06;;;;;;;10.25;4.93;;;2.90;99.90;;;;;;5032420;28;20083;-63
2022/03/06 06:33:32;;;;;;;11.77;5.63;;;2.90;99.90;;;;;;5019404;28;20025;-63
2022/03/06 06:35:58;;;;;;;10.55;4.45;;;3.00;99.90;;;;;;5032706;28;20021;-63
2022/03/06 06:38:24;;;;;;;9.23;4.30;;;3.00;99.90;;;;;;5032522;28;20036;-63
2022/03/06 06:40:51;;;;;;;8.48;4.03;;;3.00;99.90;;;;;;5033156;28;20109;-63
2022/03/06 06:43:17;;;;;;;8.88;3.95;;;3.10;99.90;;;;;;5032481;28;20492;-63
2022/03/06 06:45:42;;;;;;;6.85;3.63;;;3.10;99.90;;;;;;5032991;28;20026;-63
2022/03/06 06:48:08;;;;;;;7.88;3.88;;;3.20;99.90;;;;;;5032286;28;20487;-63
2022/03/06 06:50:34;;;;;;;11.32;3.92;;;3.20;99.90;;;;;;5032015;28;20028;-63
2022/03/06 06:53:00;;;;;;;7.65;3.95;;;3.30;99.90;;;;;;5031996;28;20101;-63
2022/03/06 06:55:25;;;;;;;7.38;3.80;;;3.30;99.90;;;;;;5031050;28;20030;-63
2022/03/06 06:57:51;;;;;;;6.13;3.35;;;3.40;99.90;;;;;;5032044;28;20026;-63
2022/03/06 07:00:16;;;;;;;10.73;4.10;;;3.50;99.90;;;;;;5032111;28;20381;-62
2022/03/06 07:02:42;;;;;;;9.10;4.25;;;3.50;99.90;;;;;;5032059;28;20041;-63
2022/03/06 07:05:09;;;;;;;8.07;4.10;;;3.60;99.90;;;;;;5032379;28;20080;-63
2022/03/06 07:07:35;;;;;;;9.48;3.88;;;3.60;99.90;;;;;;5031660;28;20101;-63
2022/03/06 07:10:01;;;;;;;8.32;3.70;;;3.80;99.90;;;;;;5033877;28;20061;-63
2022/03/06 07:12:27;;;;;;;7.53;3.90;;;3.80;99.90;;;;;;5034985;28;20458;-64
2022/03/06 07:14:52;;;;;;;6.45;3.55;;;3.90;99.90;;;;;;5035839;28;20028;-64
2022/03/06 07:17:18;;;;;;;9.23;3.97;;;4.00;99.90;;;;;;5035874;28;20074;-63
2022/03/06 07:19:44;;;;;;;7.93;3.95;;;4.10;99.90;;;;;;5035852;28;20034;-63
2022/03/06 07:22:10;;;;;;;7.57;3.38;;;4.20;99.90;;;;;;5035332;28;20021;-63
2022/03/06 07:24:36;;;;;;;9.27;4.85;;;4.20;99.90;;;;;;5035676;28;20087;-63
2022/03/06 07:27:01;;;;;;;8.40;4.60;;;4.30;99.90;;;;;;5035516;28;20155;-63
2022/03/06 07:29:27;;;;;;;10.48;4.78;;;4.40;99.90;;;;;;5035235;28;20108;-63
2022/03/06 07:31:52;;;;;;;11.93;5.45;;;4.40;99.90;;;;;;5033979;28;20526;-63
2022/03/06 07:34:19;;;;;;;10.20;4.40;;;4.40;99.90;;;;;;5035535;28;20033;-63
2022/03/06 07:36:45;;;;;;;10.93;4.70;;;4.50;99.90;;;;;;5039495;28;20030;-63
2022/03/06 07:39:10;;;;;;;10.95;4.15;;;4.60;99.90;;;;;;5035794;28;20596;-64
2022/03/06 07:41:36;;;;;;;14.48;5.20;;;4.70;99.90;;;;;;5035745;28;20037;-63
2022/03/06 07:44:01;;;;;;;8.27;4.35;;;4.70;99.90;;;;;;5034607;28;20038;-63
2022/03/06 07:46:27;;;;;;;9.05;4.60;;;4.70;99.90;;;;;;5035528;28;20091;-64
2022/03/06 07:48:53;;;;;;;7.47;4.13;;;4.80;99.90;;;;;;5054160;28;20025;-64
2022/03/06 07:51:21;;;;;;;13.57;5.50;;;4.90;99.90;;;;;;5055654;28;20453;-63
2022/03/06 07:53:47;;;;;;;9.05;4.00;;;4.90;99.90;;;;;;5035987;28;20037;-63
2022/03/06 07:56:12;;;;;;;11.77;5.22;;;5.00;99.90;;;;;;5034393;28;20386;-63
2022/03/06 07:58:43;;;;;;;14.23;5.15;;;5.00;99.90;;;;;;5036115;28;20412;-65
2022/03/06 08:01:09;;;;;;;10.82;4.95;;;5.10;99.90;;;;;;5028502;28;20035;-64
2022/03/06 08:03:34;;;;;;;13.93;5.47;;;5.20;99.90;;;;;;5035175;28;20030;-64
2022/03/06 08:06:00;;;;;;;13.77;5.75;;;5.20;99.90;;;;;;5035738;28;20033;-64
2022/03/06 08:08:25;;;;;;;12.15;5.13;;;5.30;99.90;;;;;;5033365;28;20029;-63
2022/03/06 08:10:51;;;;;;;12.88;5.13;;;5.40;99.90;;;;;;5021358;28;20036;-64
2022/03/06 08:13:17;;;;;;;12.20;4.88;;;5.50;99.90;;;;;;5035089;28;20029;-64
2022/03/06 08:15:42;;;;;;;10.20;5.10;;;5.50;99.90;;;;;;5033997;28;20029;-63
2022/03/06 08:18:08;;;;;;;10.52;4.20;;;5.70;99.90;;;;;;5034662;28;20029;-64
2022/03/06 08:20:33;;;;;;;9.68;4.57;;;5.80;99.90;;;;;;5034781;28;20087;-64
2022/03/06 08:23:00;;;;;;;9.00;3.90;;;6.00;99.90;;;;;;5034856;28;20124;-64
2022/03/06 08:25:26;;;;;;;8.77;4.38;;;6.10;99.90;;;;;;5015430;28;20049;-64
2022/03/06 08:27:52;;;;;;;10.40;4.30;;;6.10;99.90;;;;;;5014803;28;20029;-64
2022/03/06 08:30:17;;;;;;;10.48;4.30;;;6.20;99.90;;;;;;5033883;28;20025;-63
2022/03/06 08:32:43;;;;;;;8.32;3.92;;;6.40;99.90;;;;;;5028070;28;20053;-65
2022/03/06 08:35:09;;;;;;;8.73;4.40;;;6.50;99.90;;;;;;5037510;28;20458;-64
2022/03/06 08:37:35;;;;;;;9.93;3.97;;;6.60;99.90;;;;;;5037106;28;20103;-63
2022/03/06 08:40:01;;;;;;;8.43;3.80;;;6.60;99.90;;;;;;5037657;28;20121;-63
2022/03/06 08:42:26;;;;;;;7.55;3.80;;;6.90;99.90;;;;;;5035197;28;20021;-63
2022/03/06 08:44:52;;;;;;;9.63;4.03;;;7.20;99.90;;;;;;5034134;28;20465;-63
2022/03/06 08:47:17;;;;;;;5.93;3.53;;;7.60;99.90;;;;;;5035498;28;20112;-63
2022/03/06 08:49:43;;;;;;;6.88;3.30;;;8.20;99.90;;;;;;5041876;28;20116;-62
2022/03/06 08:52:10;;;;;;;6.38;2.95;;;8.80;99.90;;;;;;5034747;28;20032;-64
2022/03/06 08:54:36;;;;;;;7.72;3.60;;;9.10;99.90;;;;;;5037662;28;20029;-63
2022/03/06 08:57:02;;;;;;;5.95;2.97;;;9.40;99.90;;;;;;5034519;28;20079;-63
2022/03/06 08:59:27;;;;;;;8.60;2.80;;;9.80;99.50;;;;;;5042992;28;20029;-63
2022/03/06 09:01:55;;;;;;;6.10;3.05;;;9.90;98.30;;;;;;5027405;28;20039;-63
2022/03/06 09:04:23;;;;;;;7.25;3.38;;;10.20;97.60;;;;;;5033430;28;20037;-63
2022/03/06 09:06:49;;;;;;;7.65;3.10;;;10.50;96.70;;;;;;5034146;28;20097;-63
2022/03/06 09:09:14;;;;;;;4.60;2.50;;;10.60;96.10;;;;;;5044231;28;20061;-63
2022/03/06 09:11:40;;;;;;;5.47;2.85;;;10.80;95.00;;;;;;5032881;28;20439;-63
2022/03/06 09:14:07;;;;;;;6.78;2.75;;;10.60;94.70;;;;;;5034592;28;20068;-63
2022/03/06 09:16:32;;;;;;;6.75;3.15;;;10.70;94.70;;;;;;5034113;28;20160;-63
2022/03/06 09:18:58;;;;;;;6.63;3.00;;;10.90;95.00;;;;;;5041962;28;20099;-63
2022/03/06 09:21:24;;;;;;;6.07;3.10;;;11.20;94.40;;;;;;5045928;28;20415;-63
2022/03/06 09:23:50;;;;;;;4.13;2.58;;;11.60;93.70;;;;;;5052300;28;20053;-63
2022/03/06 09:26:15;;;;;;;6.35;2.60;;;11.90;92.10;;;;;;5034207;28;20018;-63
2022/03/06 09:28:41;;;;;;;7.68;3.05;;;12.00;91.50;;;;;;5034017;28;20036;-63
2022/03/06 09:31:07;;;;;;;7.50;2.85;;;12.20;91.40;;;;;;5031906;28;20044;-63
2022/03/06 09:33:32;;;;;;;5.03;2.55;;;12.40;91.30;;;;;;5032322;28;20405;-64
2022/03/06 09:35:58;;;;;;;7.25;2.92;;;12.70;90.00;;;;;;5036498;28;20029;-63
2022/03/06 09:38:23;;;;;;;5.65;2.90;;;13.10;87.90;;;;;;5053724;28;20021;-63
2022/03/06 09:40:51;;;;;;;5.60;2.72;;;13.00;87.40;;;;;;5033652;28;20398;-63
2022/03/06 09:43:18;;;;;;;5.85;2.92;;;13.10;86.50;;;;;;5033298;28;20039;-63
2022/03/06 09:45:45;;;;;;;5.18;2.42;;;13.40;85.50;;;;;;5034542;28;20048;-63
2022/03/06 09:48:14;;;;;;;6.63;2.60;;;13.70;83.00;;;;;;5033075;28;20025;-63
2022/03/06 09:50:39;;;;;;;5.03;2.35;;;13.80;81.70;;;;;;5033164;28;20036;-63
2022/03/06 09:53:06;;;;;;;11.52;4.72;;;14.00;80.80;;;;;;5034738;28;20025;-63
2022/03/06 09:55:32;;;;;;;6.43;2.70;;;13.70;79.20;;;;;;5032494;28;20037;-62
2022/03/06 09:57:58;;;;;;;5.13;2.80;;;13.40;79.80;;;;;;5031243;28;20120;-62
2022/03/06 10:00:24;;;;;;;6.03;2.72;;;13.10;80.90;;;;;;5032328;28;20028;-63
2022/03/06 10:02:57;;;;;;;8.43;2.97;;;13.10;81.60;;;;;;5032825;28;20037;-63
2022/03/06 10:05:37;;;;;;;6.22;3.15;;;13.20;82.60;;;;;;5032462;28;20026;-63
2022/03/06 10:08:26;;;;;;;6.03;2.90;;;13.60;79.70;;;;;;5031963;28;20022;-63
2022/03/06 10:10:57;;;;;;;5.93;2.85;;;13.50;80.70;;;;;;5032986;28;20046;-63
2022/03/06 10:13:28;;;;;;;4.72;2.63;;;13.50;80.00;;;;;;5033130;28;20378;-63
2022/03/06 10:16:09;;;;;;;3.85;2.50;;;13.70;80.10;;;;;;5033952;28;20438;-63
2022/03/06 10:18:43;;;;;;;5.00;2.70;;;13.70;78.30;;;;;;5023943;28;20067;-63
2022/03/06 10:21:09;;;;;;;4.93;2.30;;;13.70;78.40;;;;;;5036202;28;20193;-63
2022/03/06 10:23:35;;;;;;;4.55;2.30;;;13.90;77.20;;;;;;5031359;28;20049;-64
2022/03/06 10:26:03;;;;;;;5.85;2.45;;;14.00;76.80;;;;;;5036787;28;20384;-64
2022/03/06 10:28:29;;;;;;;5.03;2.83;;;13.90;76.00;;;;;;5026886;28;20497;-63
2022/03/06 10:31:01;;;;;;;4.88;2.58;;;13.70;76.10;;;;;;5036621;28;20033;-64
2022/03/06 10:33:27;;;;;;;7.00;2.58;;;13.80;76.00;;;;;;5029381;28;20040;-64
2022/03/06 10:35:55;;;;;;;5.40;2.42;;;14.20;75.30;;;;;;5032803;28;20037;-64
2022/03/06 10:38:33;;;;;;;5.07;2.80;;;14.00;75.20;;;;;;5027046;28;20373;-66
2022/03/06 10:41:06;;;;;;;6.53;2.72;;;13.70;75.50;;;;;;5029756;28;20052;-65
2022/03/06 10:43:33;;;;;;;6.18;3.47;;;13.80;75.00;;;;;;5037389;28;20053;-65
2022/03/06 10:46:08;;;;;;;6.05;2.70;;;13.90;74.40;;;;;;5041014;28;20113;-66
2022/03/06 10:48:34;;;;;;;5.90;2.38;;;14.10;73.40;;;;;;5041346;28;20428;-64
2022/03/06 10:51:05;;;;;;;4.03;2.38;;;14.40;73.00;;;;;;5041790;28;20486;-62
2022/03/06 10:53:30;;;;;;;4.10;2.65;;;14.60;71.30;;;;;;5029002;28;20029;-64
2022/03/06 10:56:12;;;;;;;8.27;2.47;;;14.80;70.70;;;;;;5037816;28;20032;-64
2022/03/06 10:58:41;;;;;;;6.82;2.85;;;15.10;70.10;;;;;;5040308;28;20435;-64
2022/03/06 11:01:07;;;;;;;6.60;2.60;;;15.30;68.90;;;;;;5031414;28;20106;-64
2022/03/06 11:03:36;;;;;;;5.70;2.65;;;15.30;67.80;;;;;;5038854;28;20134;-63
2022/03/06 11:06:07;;;;;;;4.50;2.60;;;15.20;68.20;;;;;;5034768;28;20033;-63
2022/03/06 11:08:34;;;;;;;7.32;2.60;;;15.30;67.40;;;;;;5036069;28;20462;-64
2022/03/06 11:11:00;;;;;;;5.55;2.63;;;15.30;67.90;;;;;;5036722;28;20025;-63
2022/03/06 11:13:29;;;;;;;4.35;2.75;;;15.40;66.60;;;;;;5036474;28;20044;-63
2022/03/06 11:15:55;;;;;;;5.90;2.95;;;15.40;66.50;;;;;;5036769;28;20462;-63
2022/03/06 11:18:22;;;;;;;4.60;2.97;;;15.50;66.20;;;;;;5036367;28;20053;-64
2022/03/06 11:20:48;;;;;;;7.53;2.60;;;15.60;65.60;;;;;;5036359;28;20522;-64
2022/03/06 11:23:26;;;;;;;4.40;2.28;;;15.60;65.10;;;;;;5040178;28;20055;-63
2022/03/06 11:26:14;;;;;;;5.60;3.13;;;15.60;64.80;;;;;;5038341;28;20469;-63
2022/03/06 11:29:17;;;;;;;9.10;3.30;;;15.30;65.40;;;;;;5031908;28;20017;-64
2022/03/06 11:31:46;;;;;;;6.13;3.25;;;15.10;64.70;;;;;;5039158;28;20461;-63
2022/03/06 11:34:26;;;;;;;6.18;2.90;;;15.20;65.70;;;;;;5044640;28;20030;-63
2022/03/06 11:36:53;;;;;;;6.57;2.92;;;15.40;64.90;;;;;;5041102;28;20021;-63
2022/03/06 11:39:31;;;;;;;5.55;2.42;;;15.50;63.30;;;;;;5055522;28;20025;-64
2022/03/06 11:42:03;;;;;;;5.90;2.83;;;15.20;62.40;;;;;;5056442;28;20029;-63
2022/03/06 11:44:54;;;;;;;7.97;2.35;;;14.80;62.90;;;;;;5055923;28;20044;-63
2022/03/06 11:47:43;;;;;;;7.22;2.80;;;14.50;63.30;;;;;;5016111;28;20046;-63
2022/03/06 11:50:20;;;;;;;6.03;2.90;;;14.30;62.90;;;;;;5012754;28;20041;-63
2022/03/06 11:52:45;;;;;;;3.88;2.50;;;14.00;64.00;;;;;;5015109;28;20466;-63
2022/03/06 11:55:31;;;;;;;7.80;3.00;;;13.90;65.00;;;;;;5015035;28;20025;-64
2022/03/06 11:57:57;;;;;;;8.05;2.55;;;13.90;64.50;;;;;;5015623;28;20422;-62
2022/03/06 12:00:24;;;;;;;7.63;3.10;;;13.90;63.90;;;;;;5031355;28;20056;-63
2022/03/06 12:02:58;;;;;;;5.95;2.88;;;14.00;64.00;;;;;;5036501;28;20044;-63
2022/03/06 12:05:47;;;;;;;3.75;2.40;;;13.90;64.60;;;;;;5035827;28;20025;-62
2022/03/06 12:08:15;;;;;;;7.53;2.97;;;13.90;64.10;;;;;;5035726;28;20040;-63
2022/03/06 12:10:42;;;;;;;5.57;2.53;;;13.90;64.30;;;;;;5035381;28;20079;-64
2022/03/06 12:13:18;;;;;;;3.85;2.40;;;14.00;64.90;;;;;;5035676;28;20025;-63
2022/03/06 12:16:06;;;;;;;4.78;1.92;;;14.10;63.70;;;;;;5024872;28;20037;-63
2022/03/06 12:18:32;;;;;;;5.15;2.63;;;13.90;64.20;;;;;;5026650;28;20125;-64
2022/03/06 12:20:58;;;;;;;5.43;2.70;;;13.80;62.70;;;;;;5054047;28;20029;-65
2022/03/06 12:23:30;;;;;;;3.47;2.45;;;13.70;63.80;;;;;;5041380;28;20053;-64
2022/03/06 12:25:58;;;;;;;6.15;2.53;;;13.70;64.70;;;;;;5042768;28;20025;-65
2022/03/06 12:28:47;;;;;;;4.07;2.35;;;13.80;65.10;;;;;;5038102;28;20120;-64
2022/03/06 12:31:33;;;;;;;3.53;1.70;;;13.90;65.00;;;;;;5018056;28;20080;-64
2022/03/06 12:34:01;;;;;;;5.57;2.28;;;14.10;62.60;;;;;;5040048;28;20045;-64
2022/03/06 12:36:30;;;;;;;4.60;2.08;;;14.00;62.40;;;;;;5028544;28;20034;-66
2022/03/06 12:39:06;;;;;;;4.05;2.15;;;13.80;62.80;;;;;;5030962;28;20051;-65
2022/03/06 12:41:34;;;;;;;4.90;1.88;;;13.60;62.90;;;;;;5025938;28;20103;-63
2022/03/06 12:44:06;;;;;;;7.80;2.10;;;13.50;62.50;;;;;;5038208;28;20042;-64
2022/03/06 12:46:33;;;;;;;4.90;2.45;;;13.50;63.20;;;;;;5051259;28;20035;-63